sensor_id;sensor_type;location;lat;lon;timestamp;P1;durP1;ratioP1;P2;durP2;ratioP2
7162;SDS011;3623;47.098;15.446;2023-04-25T00:01:40;8.00;;;7.18;;
7162;SDS011;3623;47.098;15.446;2023-04-25T00:04:08;8.38;;;7.40;;
7162;SDS011;3623;47.098;15.446;2023-04-25T00:06:36;7.30;;;6.80;;
7162;SDS011;3623;47.098;15.446;2023-04-25T00:09:04;8.30;;;7.68;;
7162;SDS011;3623;47.098;15.446;2023-04-25T00:11:34;9.18;;;8.05;;
7162;SDS011;3623;47.098;15.446;2023-04-25T00:14:02;8.75;;;8.05;;
7162;SDS011;3623;47.098;15.446;2023-04-25T00:16:30;10.20;;;7.50;;
7162;SDS011;3623;47.098;15.446;2023-04-25T00:18:59;9.25;;;8.35;;
7162;SDS011;3623;47.098;15.446;2023-04-25T00:21:28;7.88;;;7.10;;
7162;SDS011;3623;47.098;15.446;2023-04-25T00:23:56;8.82;;;7.18;;
7162;SDS011;3623;47.098;15.446;2023-04-25T00:26:23;9.13;;;8.32;;
7162;SDS011;3623;47.098;15.446;2023-04-25T00:28:51;8.00;;;7.30;;
7162;SDS011;3623;47.098;15.446;2023-04-25T00:31:18;15.20;;;8.40;;
7162;SDS011;3623;47.098;15.446;2023-04-25T00:33:47;9.73;;;8.90;;
7162;SDS011;3623;47.098;15.446;2023-04-25T00:36:14;9.90;;;9.00;;
7162;SDS011;3623;47.098;15.446;2023-04-25T00:38:42;10.63;;;9.77;;
7162;SDS011;3623;47.098;15.446;2023-04-25T00:41:09;9.15;;;8.10;;
7162;SDS011;3623;47.098;15.446;2023-04-25T00:43:37;10.00;;;9.00;;
7162;SDS011;3623;47.098;15.446;2023-04-25T00:46:06;10.93;;;9.93;;
7162;SDS011;3623;47.098;15.446;2023-04-25T00:48:33;8.82;;;8.10;;
7162;SDS011;3623;47.098;15.446;2023-04-25T00:51:02;9.45;;;8.60;;
7162;SDS011;3623;47.098;15.446;2023-04-25T00:53:29;9.85;;;8.73;;
7162;SDS011;3623;47.098;15.446;2023-04-25T00:55:57;9.60;;;8.80;;
7162;SDS011;3623;47.098;15.446;2023-04-25T00:58:25;11.00;;;9.95;;
7162;SDS011;3623;47.098;15.446;2023-04-25T01:00:52;11.20;;;8.07;;
7162;SDS011;3623;47.098;15.446;2023-04-25T01:03:21;8.93;;;8.07;;
7162;SDS011;3623;47.098;15.446;2023-04-25T01:05:49;9.35;;;8.55;;
7162;SDS011;3623;47.098;15.446;2023-04-25T01:08:18;9.13;;;8.35;;
7162;SDS011;3623;47.098;15.446;2023-04-25T01:10:47;10.27;;;9.35;;
7162;SDS011;3623;47.098;15.446;2023-04-25T01:13:14;9.45;;;8.57;;
7162;SDS011;3623;47.098;15.446;2023-04-25T01:15:41;10.10;;;8.55;;
7162;SDS011;3623;47.098;15.446;2023-04-25T01:18:09;9.30;;;8.43;;
7162;SDS011;3623;47.098;15.446;2023-04-25T01:20:36;8.20;;;7.43;;
7162;SDS011;3623;47.098;15.446;2023-04-25T01:23:06;8.82;;;8.02;;
7162;SDS011;3623;47.098;15.446;2023-04-25T01:25:33;7.82;;;7.15;;
7162;SDS011;3623;47.098;15.446;2023-04-25T01:28:00;6.35;;;5.95;;
7162;SDS011;3623;47.098;15.446;2023-04-25T01:30:27;8.18;;;7.38;;
7162;SDS011;3623;47.098;15.446;2023-04-25T01:32:55;7.30;;;6.60;;
7162;SDS011;3623;47.098;15.446;2023-04-25T01:35:23;7.72;;;6.60;;
7162;SDS011;3623;47.098;15.446;2023-04-25T01:37:50;6.63;;;6.00;;
7162;SDS011;3623;47.098;15.446;2023-04-25T01:40:19;6.22;;;5.60;;
7162;SDS011;3623;47.098;15.446;2023-04-25T01:42:48;4.72;;;4.28;;
7162;SDS011;3623;47.098;15.446;2023-04-25T01:45:16;3.90;;;3.70;;
7162;SDS011;3623;47.098;15.446;2023-04-25T01:47:43;3.67;;;3.40;;
7162;SDS011;3623;47.098;15.446;2023-04-25T01:50:14;2.92;;;2.72;;
7162;SDS011;3623;47.098;15.446;2023-04-25T01:52:42;2.03;;;1.92;;
7162;SDS011;3623;47.098;15.446;2023-04-25T01:55:09;2.28;;;2.17;;
7162;SDS011;3623;47.098;15.446;2023-04-25T01:57:38;2.03;;;1.92;;
7162;SDS011;3623;47.098;15.446;2023-04-25T02:00:05;1.50;;;1.50;;
7162;SDS011;3623;47.098;15.446;2023-04-25T02:02:34;2.20;;;2.10;;
7162;SDS011;3623;47.098;15.446;2023-04-25T02:05:01;2.13;;;2.03;;
7162;SDS011;3623;47.098;15.446;2023-04-25T02:07:28;2.38;;;2.20;;
7162;SDS011;3623;47.098;15.446;2023-04-25T02:09:55;3.30;;;3.00;;
7162;SDS011;3623;47.098;15.446;2023-04-25T02:12:23;6.60;;;6.07;;
7162;SDS011;3623;47.098;15.446;2023-04-25T02:14:53;3.78;;;3.55;;
7162;SDS011;3623;47.098;15.446;2023-04-25T02:17:20;5.50;;;5.20;;
7162;SDS011;3623;47.098;15.446;2023-04-25T02:19:47;7.53;;;5.35;;
7162;SDS011;3623;47.098;15.446;2023-04-25T02:22:15;6.18;;;5.68;;
7162;SDS011;3623;47.098;15.446;2023-04-25T02:24:42;5.10;;;4.80;;
7162;SDS011;3623;47.098;15.446;2023-04-25T02:27:09;5.82;;;5.32;;
7162;SDS011;3623;47.098;15.446;2023-04-25T02:29:36;6.78;;;6.28;;
7162;SDS011;3623;47.098;15.446;2023-04-25T02:32:05;6.95;;;6.32;;
7162;SDS011;3623;47.098;15.446;2023-04-25T02:34:32;7.38;;;5.03;;
7162;SDS011;3623;47.098;15.446;2023-04-25T02:36:59;6.93;;;6.25;;
7162;SDS011;3623;47.098;15.446;2023-04-25T02:39:26;7.55;;;6.85;;
7162;SDS011;3623;47.098;15.446;2023-04-25T02:41:53;8.35;;;7.53;;
7162;SDS011;3623;47.098;15.446;2023-04-25T02:44:21;7.18;;;6.68;;
7162;SDS011;3623;47.098;15.446;2023-04-25T02:46:48;5.93;;;5.47;;
7162;SDS011;3623;47.098;15.446;2023-04-25T02:49:16;11.10;;;6.95;;
7162;SDS011;3623;47.098;15.446;2023-04-25T02:51:43;7.47;;;6.63;;
7162;SDS011;3623;47.098;15.446;2023-04-25T02:54:10;6.95;;;6.43;;
7162;SDS011;3623;47.098;15.446;2023-04-25T02:56:37;6.03;;;5.53;;
7162;SDS011;3623;47.098;15.446;2023-04-25T02:59:05;6.93;;;6.22;;
7162;SDS011;3623;47.098;15.446;2023-04-25T03:01:32;4.47;;;4.18;;
7162;SDS011;3623;47.098;15.446;2023-04-25T03:03:59;4.93;;;3.55;;
7162;SDS011;3623;47.098;15.446;2023-04-25T03:06:27;4.25;;;4.05;;
7162;SDS011;3623;47.098;15.446;2023-04-25T03:08:55;5.78;;;4.70;;
7162;SDS011;3623;47.098;15.446;2023-04-25T03:11:24;8.43;;;7.35;;
7162;SDS011;3623;47.098;15.446;2023-04-25T03:13:52;7.00;;;6.40;;
7162;SDS011;3623;47.098;15.446;2023-04-25T03:16:19;7.32;;;6.72;;
7162;SDS011;3623;47.098;15.446;2023-04-25T03:18:46;182.95;;;18.15;;
7162;SDS011;3623;47.098;15.446;2023-04-25T03:21:14;51.05;;;10.13;;
7162;SDS011;3623;47.098;15.446;2023-04-25T03:23:43;226.48;;;18.38;;
7162;SDS011;3623;47.098;15.446;2023-04-25T03:26:10;19.20;;;6.80;;
7162;SDS011;3623;47.098;15.446;2023-04-25T03:28:38;13.15;;;6.82;;
7162;SDS011;3623;47.098;15.446;2023-04-25T03:31:05;8.82;;;8.02;;
7162;SDS011;3623;47.098;15.446;2023-04-25T03:33:35;8.57;;;7.88;;
7162;SDS011;3623;47.098;15.446;2023-04-25T03:36:02;9.23;;;8.52;;
7162;SDS011;3623;47.098;15.446;2023-04-25T03:38:30;10.05;;;8.73;;
7162;SDS011;3623;47.098;15.446;2023-04-25T03:40:58;9.35;;;8.55;;
7162;SDS011;3623;47.098;15.446;2023-04-25T03:43:25;7.75;;;6.90;;
7162;SDS011;3623;47.098;15.446;2023-04-25T03:45:53;7.53;;;6.70;;
7162;SDS011;3623;47.098;15.446;2023-04-25T03:48:20;7.78;;;6.68;;
7162;SDS011;3623;47.098;15.446;2023-04-25T03:50:49;40.17;;;8.98;;
7162;SDS011;3623;47.098;15.446;2023-04-25T03:53:16;20.50;;;7.72;;
7162;SDS011;3623;47.098;15.446;2023-04-25T03:55:44;11.68;;;7.75;;
7162;SDS011;3623;47.098;15.446;2023-04-25T03:58:12;7.13;;;6.53;;
7162;SDS011;3623;47.098;15.446;2023-04-25T04:00:39;5.75;;;5.35;;
7162;SDS011;3623;47.098;15.446;2023-04-25T04:03:06;5.00;;;4.70;;
7162;SDS011;3623;47.098;15.446;2023-04-25T04:05:33;5.65;;;5.10;;
7162;SDS011;3623;47.098;15.446;2023-04-25T04:08:02;7.78;;;7.07;;
7162;SDS011;3623;47.098;15.446;2023-04-25T04:10:29;5.30;;;4.93;;
7162;SDS011;3623;47.098;15.446;2023-04-25T04:12:56;4.97;;;4.63;;
7162;SDS011;3623;47.098;15.446;2023-04-25T04:15:25;6.05;;;4.68;;
7162;SDS011;3623;47.098;15.446;2023-04-25T04:17:52;4.20;;;3.90;;
7162;SDS011;3623;47.098;15.446;2023-04-25T04:20:20;4.88;;;4.47;;
7162;SDS011;3623;47.098;15.446;2023-04-25T04:22:47;6.45;;;5.82;;
7162;SDS011;3623;47.098;15.446;2023-04-25T04:25:14;5.40;;;5.00;;
7162;SDS011;3623;47.098;15.446;2023-04-25T04:27:41;5.93;;;5.43;;
7162;SDS011;3623;47.098;15.446;2023-04-25T04:30:10;6.43;;;5.50;;
7162;SDS011;3623;47.098;15.446;2023-04-25T04:32:39;7.43;;;6.43;;
7162;SDS011;3623;47.098;15.446;2023-04-25T04:35:07;7.70;;;7.10;;
7162;SDS011;3623;47.098;15.446;2023-04-25T04:37:36;7.00;;;6.40;;
7162;SDS011;3623;47.098;15.446;2023-04-25T04:40:06;5.65;;;5.18;;
7162;SDS011;3623;47.098;15.446;2023-04-25T04:42:36;5.55;;;5.15;;
7162;SDS011;3623;47.098;15.446;2023-04-25T04:45:04;5.75;;;5.18;;
7162;SDS011;3623;47.098;15.446;2023-04-25T04:47:31;4.55;;;4.15;;
7162;SDS011;3623;47.098;15.446;2023-04-25T04:50:00;5.88;;;4.60;;
7162;SDS011;3623;47.098;15.446;2023-04-25T04:52:27;4.50;;;4.10;;
7162;SDS011;3623;47.098;15.446;2023-04-25T04:54:55;4.05;;;3.75;;
7162;SDS011;3623;47.098;15.446;2023-04-25T04:57:24;3.85;;;3.65;;
7162;SDS011;3623;47.098;15.446;2023-04-25T04:59:53;5.60;;;4.30;;
7162;SDS011;3623;47.098;15.446;2023-04-25T05:02:20;4.00;;;3.70;;
7162;SDS011;3623;47.098;15.446;2023-04-25T05:04:49;5.60;;;4.40;;
7162;SDS011;3623;47.098;15.446;2023-04-25T05:07:18;6.55;;;4.47;;
7162;SDS011;3623;47.098;15.446;2023-04-25T05:09:48;5.25;;;4.85;;
7162;SDS011;3623;47.098;15.446;2023-04-25T05:12:15;5.00;;;4.60;;
7162;SDS011;3623;47.098;15.446;2023-04-25T05:14:42;4.72;;;4.32;;
7162;SDS011;3623;47.098;15.446;2023-04-25T05:17:09;4.18;;;3.78;;
7162;SDS011;3623;47.098;15.446;2023-04-25T05:19:36;3.35;;;3.15;;
7162;SDS011;3623;47.098;15.446;2023-04-25T05:22:04;3.97;;;3.78;;
7162;SDS011;3623;47.098;15.446;2023-04-25T05:24:33;3.38;;;3.17;;
7162;SDS011;3623;47.098;15.446;2023-04-25T05:27:02;2.65;;;2.45;;
7162;SDS011;3623;47.098;15.446;2023-04-25T05:29:29;2.33;;;2.22;;
7162;SDS011;3623;47.098;15.446;2023-04-25T05:31:56;2.42;;;2.33;;
7162;SDS011;3623;47.098;15.446;2023-04-25T05:34:23;2.42;;;2.33;;
7162;SDS011;3623;47.098;15.446;2023-04-25T05:36:50;3.00;;;2.80;;
7162;SDS011;3623;47.098;15.446;2023-04-25T05:39:17;2.75;;;2.55;;
7162;SDS011;3623;47.098;15.446;2023-04-25T05:41:46;2.45;;;2.35;;
7162;SDS011;3623;47.098;15.446;2023-04-25T05:44:13;3.20;;;3.00;;
7162;SDS011;3623;47.098;15.446;2023-04-25T05:46:41;3.17;;;3.00;;
7162;SDS011;3623;47.098;15.446;2023-04-25T05:49:08;3.22;;;3.05;;
7162;SDS011;3623;47.098;15.446;2023-04-25T05:51:35;4.03;;;3.10;;
7162;SDS011;3623;47.098;15.446;2023-04-25T05:54:05;2.95;;;2.67;;
7162;SDS011;3623;47.098;15.446;2023-04-25T05:56:32;3.40;;;3.20;;
7162;SDS011;3623;47.098;15.446;2023-04-25T05:59:00;2.58;;;2.47;;
7162;SDS011;3623;47.098;15.446;2023-04-25T06:01:28;2.50;;;2.40;;
7162;SDS011;3623;47.098;15.446;2023-04-25T06:03:57;3.13;;;2.92;;
7162;SDS011;3623;47.098;15.446;2023-04-25T06:06:24;2.67;;;2.58;;
7162;SDS011;3623;47.098;15.446;2023-04-25T06:08:52;2.30;;;2.20;;
7162;SDS011;3623;47.098;15.446;2023-04-25T06:11:19;1.77;;;1.67;;
7162;SDS011;3623;47.098;15.446;2023-04-25T06:13:46;2.00;;;1.88;;
7162;SDS011;3623;47.098;15.446;2023-04-25T06:16:17;2.88;;;2.70;;
7162;SDS011;3623;47.098;15.446;2023-04-25T06:18:44;2.88;;;2.50;;
7162;SDS011;3623;47.098;15.446;2023-04-25T06:21:11;2.45;;;2.25;;
7162;SDS011;3623;47.098;15.446;2023-04-25T06:23:39;2.65;;;2.55;;
7162;SDS011;3623;47.098;15.446;2023-04-25T06:26:06;2.60;;;2.40;;
7162;SDS011;3623;47.098;15.446;2023-04-25T06:28:33;2.40;;;2.20;;
7162;SDS011;3623;47.098;15.446;2023-04-25T06:31:00;2.30;;;1.80;;
7162;SDS011;3623;47.098;15.446;2023-04-25T06:33:28;2.30;;;2.10;;
7162;SDS011;3623;47.098;15.446;2023-04-25T06:35:56;2.15;;;1.30;;
7162;SDS011;3623;47.098;15.446;2023-04-25T06:38:23;1.30;;;1.30;;
7162;SDS011;3623;47.098;15.446;2023-04-25T06:40:50;1.77;;;1.70;;
7162;SDS011;3623;47.098;15.446;2023-04-25T06:43:17;8.63;;;2.50;;
7162;SDS011;3623;47.098;15.446;2023-04-25T06:45:44;2.97;;;2.70;;
7162;SDS011;3623;47.098;15.446;2023-04-25T06:48:12;2.90;;;2.70;;
7162;SDS011;3623;47.098;15.446;2023-04-25T06:50:40;2.80;;;2.60;;
7162;SDS011;3623;47.098;15.446;2023-04-25T06:53:07;2.97;;;2.77;;
7162;SDS011;3623;47.098;15.446;2023-04-25T06:55:36;4.40;;;3.27;;
7162;SDS011;3623;47.098;15.446;2023-04-25T06:58:04;4.27;;;2.67;;
7162;SDS011;3623;47.098;15.446;2023-04-25T07:00:32;6.50;;;3.30;;
7162;SDS011;3623;47.098;15.446;2023-04-25T07:02:59;2.77;;;2.57;;
7162;SDS011;3623;47.098;15.446;2023-04-25T07:05:26;2.17;;;2.07;;
7162;SDS011;3623;47.098;15.446;2023-04-25T07:07:55;2.17;;;2.07;;
7162;SDS011;3623;47.098;15.446;2023-04-25T07:10:22;1.93;;;1.67;;
7162;SDS011;3623;47.098;15.446;2023-04-25T07:12:50;1.67;;;1.57;;
7162;SDS011;3623;47.098;15.446;2023-04-25T07:15:17;2.57;;;2.37;;
7162;SDS011;3623;47.098;15.446;2023-04-25T07:17:44;3.63;;;2.20;;
7162;SDS011;3623;47.098;15.446;2023-04-25T07:20:11;2.10;;;1.90;;
7162;SDS011;3623;47.098;15.446;2023-04-25T07:22:39;2.90;;;2.43;;
7162;SDS011;3623;47.098;15.446;2023-04-25T07:25:08;2.30;;;2.20;;
7162;SDS011;3623;47.098;15.446;2023-04-25T07:27:35;2.70;;;2.50;;
7162;SDS011;3623;47.098;15.446;2023-04-25T07:30:03;2.00;;;1.80;;
7162;SDS011;3623;47.098;15.446;2023-04-25T07:32:31;3.07;;;2.77;;
7162;SDS011;3623;47.098;15.446;2023-04-25T07:34:58;2.60;;;2.40;;
7162;SDS011;3623;47.098;15.446;2023-04-25T07:37:27;4.23;;;2.77;;
7162;SDS011;3623;47.098;15.446;2023-04-25T07:39:54;3.05;;;2.85;;
7162;SDS011;3623;47.098;15.446;2023-04-25T07:42:22;4.53;;;3.60;;
7162;SDS011;3623;47.098;15.446;2023-04-25T07:44:49;3.30;;;3.10;;
7162;SDS011;3623;47.098;15.446;2023-04-25T07:47:17;2.85;;;2.65;;
7162;SDS011;3623;47.098;15.446;2023-04-25T07:49:45;2.83;;;2.63;;
7162;SDS011;3623;47.098;15.446;2023-04-25T07:52:12;3.93;;;2.20;;
7162;SDS011;3623;47.098;15.446;2023-04-25T07:54:39;3.90;;;2.00;;
7162;SDS011;3623;47.098;15.446;2023-04-25T07:57:08;2.23;;;2.13;;
7162;SDS011;3623;47.098;15.446;2023-04-25T07:59:36;1.90;;;1.80;;
7162;SDS011;3623;47.098;15.446;2023-04-25T08:02:04;2.57;;;2.43;;
7162;SDS011;3623;47.098;15.446;2023-04-25T08:04:31;2.53;;;2.10;;
7162;SDS011;3623;47.098;15.446;2023-04-25T08:06:59;8.87;;;2.90;;
7162;SDS011;3623;47.098;15.446;2023-04-25T08:09:26;2.77;;;2.57;;
7162;SDS011;3623;47.098;15.446;2023-04-25T08:11:54;2.20;;;2.00;;
7162;SDS011;3623;47.098;15.446;2023-04-25T08:14:21;2.33;;;2.17;;
7162;SDS011;3623;47.098;15.446;2023-04-25T08:16:52;2.83;;;1.70;;
7162;SDS011;3623;47.098;15.446;2023-04-25T08:19:22;1.57;;;1.47;;
7162;SDS011;3623;47.098;15.446;2023-04-25T08:21:49;1.00;;;1.00;;
7162;SDS011;3623;47.098;15.446;2023-04-25T08:24:17;1.83;;;1.43;;
7162;SDS011;3623;47.098;15.446;2023-04-25T08:26:44;2.23;;;2.13;;
7162;SDS011;3623;47.098;15.446;2023-04-25T08:29:11;2.20;;;1.30;;
7162;SDS011;3623;47.098;15.446;2023-04-25T08:31:38;2.10;;;1.90;;
7162;SDS011;3623;47.098;15.446;2023-04-25T08:34:14;2.90;;;2.70;;
7162;SDS011;3623;47.098;15.446;2023-04-25T08:36:41;5.63;;;2.30;;
7162;SDS011;3623;47.098;15.446;2023-04-25T08:39:08;2.90;;;2.70;;
7162;SDS011;3623;47.098;15.446;2023-04-25T08:41:36;2.63;;;2.43;;
7162;SDS011;3623;47.098;15.446;2023-04-25T08:44:03;2.23;;;2.13;;
7162;SDS011;3623;47.098;15.446;2023-04-25T08:46:31;2.90;;;2.30;;
7162;SDS011;3623;47.098;15.446;2023-04-25T08:49:00;1.93;;;1.83;;
7162;SDS011;3623;47.098;15.446;2023-04-25T08:51:30;2.20;;;1.70;;
7162;SDS011;3623;47.098;15.446;2023-04-25T08:54:03;2.40;;;1.60;;
7162;SDS011;3623;47.098;15.446;2023-04-25T08:56:36;3.90;;;1.80;;
7162;SDS011;3623;47.098;15.446;2023-04-25T08:59:04;1.47;;;1.37;;
7162;SDS011;3623;47.098;15.446;2023-04-25T09:01:33;2.93;;;1.97;;
7162;SDS011;3623;47.098;15.446;2023-04-25T09:04:01;1.50;;;1.40;;
7162;SDS011;3623;47.098;15.446;2023-04-25T09:06:30;2.70;;;1.87;;
7162;SDS011;3623;47.098;15.446;2023-04-25T09:09:01;1.40;;;1.30;;
7162;SDS011;3623;47.098;15.446;2023-04-25T09:11:30;2.07;;;1.87;;
7162;SDS011;3623;47.098;15.446;2023-04-25T09:14:10;2.73;;;1.67;;
7162;SDS011;3623;47.098;15.446;2023-04-25T09:19:27;3.17;;;1.40;;
7162;SDS011;3623;47.098;15.446;2023-04-25T09:21:57;1.83;;;1.73;;
7162;SDS011;3623;47.098;15.446;2023-04-25T09:27:17;1.50;;;1.37;;
7162;SDS011;3623;47.098;15.446;2023-04-25T09:29:45;2.57;;;1.37;;
7162;SDS011;3623;47.098;15.446;2023-04-25T09:32:18;2.37;;;1.40;;
7162;SDS011;3623;47.098;15.446;2023-04-25T09:34:46;4.80;;;1.63;;
7162;SDS011;3623;47.098;15.446;2023-04-25T09:37:19;2.17;;;1.77;;
7162;SDS011;3623;47.098;15.446;2023-04-25T09:39:50;1.20;;;1.20;;
7162;SDS011;3623;47.098;15.446;2023-04-25T09:42:21;1.30;;;1.30;;
7162;SDS011;3623;47.098;15.446;2023-04-25T09:44:51;3.13;;;1.33;;
7162;SDS011;3623;47.098;15.446;2023-04-25T09:47:22;1.70;;;1.60;;
7162;SDS011;3623;47.098;15.446;2023-04-25T09:49:50;1.20;;;1.10;;
7162;SDS011;3623;47.098;15.446;2023-04-25T09:52:20;3.00;;;1.47;;
7162;SDS011;3623;47.098;15.446;2023-04-25T09:54:48;1.83;;;1.30;;
7162;SDS011;3623;47.098;15.446;2023-04-25T09:57:16;2.93;;;1.83;;
7162;SDS011;3623;47.098;15.446;2023-04-25T09:59:45;1.17;;;1.17;;
7162;SDS011;3623;47.098;15.446;2023-04-25T10:02:13;5.03;;;1.40;;
7162;SDS011;3623;47.098;15.446;2023-04-25T10:04:42;1.30;;;1.20;;
7162;SDS011;3623;47.098;15.446;2023-04-25T10:07:13;3.60;;;1.80;;
7162;SDS011;3623;47.098;15.446;2023-04-25T10:09:47;1.60;;;1.37;;
7162;SDS011;3623;47.098;15.446;2023-04-25T10:12:16;2.00;;;0.97;;
7162;SDS011;3623;47.098;15.446;2023-04-25T10:14:44;1.10;;;1.10;;
7162;SDS011;3623;47.098;15.446;2023-04-25T10:17:13;1.30;;;1.20;;
7162;SDS011;3623;47.098;15.446;2023-04-25T10:19:40;1.33;;;1.13;;
7162;SDS011;3623;47.098;15.446;2023-04-25T10:22:11;1.10;;;1.10;;
7162;SDS011;3623;47.098;15.446;2023-04-25T10:24:41;1.13;;;1.13;;
7162;SDS011;3623;47.098;15.446;2023-04-25T10:27:10;5.70;;;1.37;;
7162;SDS011;3623;47.098;15.446;2023-04-25T10:29:38;2.30;;;1.17;;
7162;SDS011;3623;47.098;15.446;2023-04-25T10:32:08;1.40;;;1.27;;
7162;SDS011;3623;47.098;15.446;2023-04-25T10:34:39;1.67;;;1.37;;
7162;SDS011;3623;47.098;15.446;2023-04-25T10:37:10;3.90;;;1.40;;
7162;SDS011;3623;47.098;15.446;2023-04-25T10:39:38;1.93;;;1.20;;
7162;SDS011;3623;47.098;15.446;2023-04-25T10:42:06;1.10;;;1.10;;
7162;SDS011;3623;47.098;15.446;2023-04-25T10:44:36;2.10;;;1.43;;
7162;SDS011;3623;47.098;15.446;2023-04-25T10:47:06;1.13;;;1.03;;
7162;SDS011;3623;47.098;15.446;2023-04-25T10:49:35;1.30;;;1.20;;
7162;SDS011;3623;47.098;15.446;2023-04-25T10:52:13;1.97;;;1.40;;
7162;SDS011;3623;47.098;15.446;2023-04-25T10:54:47;1.73;;;0.97;;
7162;SDS011;3623;47.098;15.446;2023-04-25T10:57:30;1.37;;;1.37;;
7162;SDS011;3623;47.098;15.446;2023-04-25T11:00:00;1.27;;;1.27;;
7162;SDS011;3623;47.098;15.446;2023-04-25T11:02:31;1.40;;;1.20;;
7162;SDS011;3623;47.098;15.446;2023-04-25T11:05:03;1.23;;;1.13;;
7162;SDS011;3623;47.098;15.446;2023-04-25T11:07:33;1.37;;;1.07;;
7162;SDS011;3623;47.098;15.446;2023-04-25T11:10:04;1.00;;;1.00;;
7162;SDS011;3623;47.098;15.446;2023-04-25T11:12:33;4.40;;;1.63;;
7162;SDS011;3623;47.098;15.446;2023-04-25T11:15:02;2.17;;;0.97;;
7162;SDS011;3623;47.098;15.446;2023-04-25T11:17:33;1.73;;;1.27;;
7162;SDS011;3623;47.098;15.446;2023-04-25T11:20:00;1.70;;;1.30;;
7162;SDS011;3623;47.098;15.446;2023-04-25T11:22:29;1.30;;;1.20;;
7162;SDS011;3623;47.098;15.446;2023-04-25T11:24:56;1.97;;;1.13;;
7162;SDS011;3623;47.098;15.446;2023-04-25T11:27:25;2.40;;;1.13;;
7162;SDS011;3623;47.098;15.446;2023-04-25T11:29:52;2.83;;;1.20;;
7162;SDS011;3623;47.098;15.446;2023-04-25T11:32:21;1.30;;;1.00;;
7162;SDS011;3623;47.098;15.446;2023-04-25T11:34:48;1.13;;;1.03;;
7162;SDS011;3623;47.098;15.446;2023-04-25T11:37:15;3.00;;;1.00;;
7162;SDS011;3623;47.098;15.446;2023-04-25T11:39:43;1.03;;;0.90;;
7162;SDS011;3623;47.098;15.446;2023-04-25T11:42:13;1.10;;;1.07;;
7162;SDS011;3623;47.098;15.446;2023-04-25T11:44:41;2.17;;;1.10;;
7162;SDS011;3623;47.098;15.446;2023-04-25T11:47:08;1.10;;;1.10;;
7162;SDS011;3623;47.098;15.446;2023-04-25T11:49:36;1.67;;;1.10;;
7162;SDS011;3623;47.098;15.446;2023-04-25T11:52:05;0.80;;;0.80;;
7162;SDS011;3623;47.098;15.446;2023-04-25T11:54:35;1.43;;;1.10;;
7162;SDS011;3623;47.098;15.446;2023-04-25T11:57:02;1.50;;;1.40;;
7162;SDS011;3623;47.098;15.446;2023-04-25T11:59:30;1.57;;;1.30;;
7162;SDS011;3623;47.098;15.446;2023-04-25T12:01:57;1.53;;;1.10;;
7162;SDS011;3623;47.098;15.446;2023-04-25T12:04:29;1.40;;;1.30;;
7162;SDS011;3623;47.098;15.446;2023-04-25T12:06:59;3.60;;;1.90;;
7162;SDS011;3623;47.098;15.446;2023-04-25T12:09:28;2.00;;;1.30;;
7162;SDS011;3623;47.098;15.446;2023-04-25T12:11:56;3.70;;;2.23;;
7162;SDS011;3623;47.098;15.446;2023-04-25T12:14:25;0.90;;;0.90;;
7162;SDS011;3623;47.098;15.446;2023-04-25T12:16:54;2.10;;;1.20;;
7162;SDS011;3623;47.098;15.446;2023-04-25T12:19:24;1.13;;;1.03;;
7162;SDS011;3623;47.098;15.446;2023-04-25T12:21:52;1.47;;;1.00;;
7162;SDS011;3623;47.098;15.446;2023-04-25T12:24:22;1.03;;;0.97;;
7162;SDS011;3623;47.098;15.446;2023-04-25T12:26:51;1.00;;;0.90;;
7162;SDS011;3623;47.098;15.446;2023-04-25T12:29:20;0.80;;;0.80;;
7162;SDS011;3623;47.098;15.446;2023-04-25T12:31:49;1.13;;;1.00;;
7162;SDS011;3623;47.098;15.446;2023-04-25T12:34:17;0.97;;;0.77;;
7162;SDS011;3623;47.098;15.446;2023-04-25T12:36:44;1.60;;;0.83;;
7162;SDS011;3623;47.098;15.446;2023-04-25T12:39:15;1.47;;;1.20;;
7162;SDS011;3623;47.098;15.446;2023-04-25T12:41:45;1.27;;;1.20;;
7162;SDS011;3623;47.098;15.446;2023-04-25T12:44:13;0.97;;;0.97;;
7162;SDS011;3623;47.098;15.446;2023-04-25T12:46:40;1.03;;;1.00;;
7162;SDS011;3623;47.098;15.446;2023-04-25T12:49:07;0.70;;;0.70;;
7162;SDS011;3623;47.098;15.446;2023-04-25T12:51:35;1.00;;;0.80;;
7162;SDS011;3623;47.098;15.446;2023-04-25T12:54:03;1.00;;;1.00;;
7162;SDS011;3623;47.098;15.446;2023-04-25T12:56:33;1.80;;;1.00;;
7162;SDS011;3623;47.098;15.446;2023-04-25T12:59:02;3.40;;;0.80;;
7162;SDS011;3623;47.098;15.446;2023-04-25T13:01:30;1.17;;;1.03;;
7162;SDS011;3623;47.098;15.446;2023-04-25T13:03:57;0.90;;;0.90;;
7162;SDS011;3623;47.098;15.446;2023-04-25T13:06:24;0.80;;;0.80;;
7162;SDS011;3623;47.098;15.446;2023-04-25T13:08:51;1.40;;;1.00;;
7162;SDS011;3623;47.098;15.446;2023-04-25T13:11:19;1.47;;;1.00;;
7162;SDS011;3623;47.098;15.446;2023-04-25T13:13:47;1.00;;;1.00;;
7162;SDS011;3623;47.098;15.446;2023-04-25T13:16:15;0.93;;;0.80;;
7162;SDS011;3623;47.098;15.446;2023-04-25T13:18:45;1.03;;;0.90;;
7162;SDS011;3623;47.098;15.446;2023-04-25T13:21:13;1.30;;;1.00;;
7162;SDS011;3623;47.098;15.446;2023-04-25T13:23:40;0.70;;;0.70;;
7162;SDS011;3623;47.098;15.446;2023-04-25T13:26:11;1.00;;;1.00;;
7162;SDS011;3623;47.098;15.446;2023-04-25T13:28:41;4.67;;;2.10;;
7162;SDS011;3623;47.098;15.446;2023-04-25T13:31:10;1.30;;;0.90;;
7162;SDS011;3623;47.098;15.446;2023-04-25T13:33:43;0.93;;;0.93;;
7162;SDS011;3623;47.098;15.446;2023-04-25T13:36:21;1.60;;;0.97;;
7162;SDS011;3623;47.098;15.446;2023-04-25T13:38:59;2.03;;;0.90;;
7162;SDS011;3623;47.098;15.446;2023-04-25T13:41:30;0.83;;;0.83;;
7162;SDS011;3623;47.098;15.446;2023-04-25T13:43:57;1.83;;;0.80;;
7162;SDS011;3623;47.098;15.446;2023-04-25T13:46:26;1.57;;;1.40;;
7162;SDS011;3623;47.098;15.446;2023-04-25T13:48:55;1.40;;;1.30;;
7162;SDS011;3623;47.098;15.446;2023-04-25T13:51:23;1.83;;;1.33;;
7162;SDS011;3623;47.098;15.446;2023-04-25T13:53:51;2.97;;;1.33;;
7162;SDS011;3623;47.098;15.446;2023-04-25T13:56:18;1.67;;;0.97;;
7162;SDS011;3623;47.098;15.446;2023-04-25T13:58:47;1.47;;;1.37;;
7162;SDS011;3623;47.098;15.446;2023-04-25T14:01:14;1.33;;;1.10;;
7162;SDS011;3623;47.098;15.446;2023-04-25T14:03:41;1.77;;;1.67;;
7162;SDS011;3623;47.098;15.446;2023-04-25T14:06:10;1.13;;;1.00;;
7162;SDS011;3623;47.098;15.446;2023-04-25T14:08:37;3.20;;;1.00;;
7162;SDS011;3623;47.098;15.446;2023-04-25T14:11:05;2.33;;;1.20;;
7162;SDS011;3623;47.098;15.446;2023-04-25T14:13:32;1.37;;;1.20;;
7162;SDS011;3623;47.098;15.446;2023-04-25T14:15:59;1.80;;;1.17;;
7162;SDS011;3623;47.098;15.446;2023-04-25T14:18:27;1.20;;;1.20;;
7162;SDS011;3623;47.098;15.446;2023-04-25T14:20:54;1.70;;;1.60;;
7162;SDS011;3623;47.098;15.446;2023-04-25T14:23:22;1.80;;;1.30;;
7162;SDS011;3623;47.098;15.446;2023-04-25T14:25:49;2.07;;;1.40;;
7162;SDS011;3623;47.098;15.446;2023-04-25T14:28:17;1.97;;;1.80;;
7162;SDS011;3623;47.098;15.446;2023-04-25T14:30:44;1.50;;;1.40;;
7162;SDS011;3623;47.098;15.446;2023-04-25T14:33:15;1.10;;;1.10;;
7162;SDS011;3623;47.098;15.446;2023-04-25T14:36:00;1.93;;;1.23;;
7162;SDS011;3623;47.098;15.446;2023-04-25T14:38:29;0.97;;;0.93;;
7162;SDS011;3623;47.098;15.446;2023-04-25T14:40:58;1.30;;;1.23;;
7162;SDS011;3623;47.098;15.446;2023-04-25T14:43:25;1.37;;;1.30;;
7162;SDS011;3623;47.098;15.446;2023-04-25T14:45:53;1.17;;;1.17;;
7162;SDS011;3623;47.098;15.446;2023-04-25T14:48:20;2.13;;;1.17;;
7162;SDS011;3623;47.098;15.446;2023-04-25T14:50:48;1.17;;;0.93;;
7162;SDS011;3623;47.098;15.446;2023-04-25T14:53:17;1.47;;;1.30;;
7162;SDS011;3623;47.098;15.446;2023-04-25T14:55:48;1.37;;;1.30;;
7162;SDS011;3623;47.098;15.446;2023-04-25T14:58:15;1.00;;;1.00;;
7162;SDS011;3623;47.098;15.446;2023-04-25T15:00:43;4.83;;;1.20;;
7162;SDS011;3623;47.098;15.446;2023-04-25T15:03:10;2.87;;;0.90;;
7162;SDS011;3623;47.098;15.446;2023-04-25T15:05:38;1.10;;;1.10;;
7162;SDS011;3623;47.098;15.446;2023-04-25T15:08:06;1.77;;;1.67;;
7162;SDS011;3623;47.098;15.446;2023-04-25T15:10:33;1.53;;;1.30;;
7162;SDS011;3623;47.098;15.446;2023-04-25T15:13:02;1.53;;;0.80;;